sensor_id;sensor_type;location;lat;lon;timestamp;P1;durP1;ratioP1;P2;durP2;ratioP2
13743;SDS011;6943;52.368;9.966;2023-08-07T00:02:24;6.00;;;5.40;;
13743;SDS011;6943;52.368;9.966;2023-08-07T00:04:50;7.70;;;5.53;;
13743;SDS011;6943;52.368;9.966;2023-08-07T00:07:16;6.70;;;5.17;;
13743;SDS011;6943;52.368;9.966;2023-08-07T00:09:43;6.50;;;5.80;;
13743;SDS011;6943;52.368;9.966;2023-08-07T00:12:08;8.03;;;6.30;;
13743;SDS011;6943;52.368;9.966;2023-08-07T00:14:34;9.67;;;5.90;;
13743;SDS011;6943;52.368;9.966;2023-08-07T00:16:59;7.07;;;6.07;;
13743;SDS011;6943;52.368;9.966;2023-08-07T00:19:25;7.20;;;5.43;;
13743;SDS011;6943;52.368;9.966;2023-08-07T00:21:50;5.83;;;4.70;;
13743;SDS011;6943;52.368;9.966;2023-08-07T00:24:16;8.23;;;5.23;;
13743;SDS011;6943;52.368;9.966;2023-08-07T00:26:42;6.03;;;4.80;;
13743;SDS011;6943;52.368;9.966;2023-08-07T00:29:07;6.37;;;4.93;;
13743;SDS011;6943;52.368;9.966;2023-08-07T00:31:32;5.27;;;4.77;;
13743;SDS011;6943;52.368;9.966;2023-08-07T00:33:59;6.93;;;6.23;;
13743;SDS011;6943;52.368;9.966;2023-08-07T00:36:24;7.97;;;5.20;;
13743;SDS011;6943;52.368;9.966;2023-08-07T00:38:53;6.57;;;5.97;;
13743;SDS011;6943;52.368;9.966;2023-08-07T00:41:19;7.93;;;6.07;;
13743;SDS011;6943;52.368;9.966;2023-08-07T00:43:45;7.40;;;6.07;;
13743;SDS011;6943;52.368;9.966;2023-08-07T00:46:11;6.63;;;5.67;;
13743;SDS011;6943;52.368;9.966;2023-08-07T00:48:36;11.73;;;6.53;;
13743;SDS011;6943;52.368;9.966;2023-08-07T00:51:02;7.80;;;5.27;;
13743;SDS011;6943;52.368;9.966;2023-08-07T00:53:29;9.13;;;6.10;;
13743;SDS011;6943;52.368;9.966;2023-08-07T00:55:55;10.00;;;5.63;;
13743;SDS011;6943;52.368;9.966;2023-08-07T00:58:22;6.03;;;5.43;;
13743;SDS011;6943;52.368;9.966;2023-08-07T01:00:48;6.13;;;5.53;;
13743;SDS011;6943;52.368;9.966;2023-08-07T01:03:14;7.13;;;5.67;;
13743;SDS011;6943;52.368;9.966;2023-08-07T01:05:39;7.37;;;6.17;;
13743;SDS011;6943;52.368;9.966;2023-08-07T01:08:05;6.80;;;6.07;;
13743;SDS011;6943;52.368;9.966;2023-08-07T01:10:52;6.53;;;5.90;;
13743;SDS011;6943;52.368;9.966;2023-08-07T01:15:47;7.47;;;6.77;;
13743;SDS011;6943;52.368;9.966;2023-08-07T01:18:17;7.80;;;6.80;;
13743;SDS011;6943;52.368;9.966;2023-08-07T01:20:43;8.30;;;7.23;;
13743;SDS011;6943;52.368;9.966;2023-08-07T01:23:08;8.97;;;6.73;;
13743;SDS011;6943;52.368;9.966;2023-08-07T01:25:34;6.27;;;5.67;;
13743;SDS011;6943;52.368;9.966;2023-08-07T01:28:06;6.80;;;5.70;;
13743;SDS011;6943;52.368;9.966;2023-08-07T01:30:42;7.57;;;5.63;;
13743;SDS011;6943;52.368;9.966;2023-08-07T01:33:24;6.93;;;6.23;;
13743;SDS011;6943;52.368;9.966;2023-08-07T01:35:57;8.10;;;7.27;;
13743;SDS011;6943;52.368;9.966;2023-08-07T01:38:26;8.47;;;7.33;;
13743;SDS011;6943;52.368;9.966;2023-08-07T01:40:53;8.47;;;7.57;;
13743;SDS011;6943;52.368;9.966;2023-08-07T01:43:19;9.83;;;7.30;;
13743;SDS011;6943;52.368;9.966;2023-08-07T01:45:45;9.83;;;8.13;;
13743;SDS011;6943;52.368;9.966;2023-08-07T01:48:10;8.80;;;7.80;;
13743;SDS011;6943;52.368;9.966;2023-08-07T01:50:37;10.67;;;8.73;;
13743;SDS011;6943;52.368;9.966;2023-08-07T01:53:04;9.50;;;8.37;;
13743;SDS011;6943;52.368;9.966;2023-08-07T01:55:30;12.43;;;9.00;;
13743;SDS011;6943;52.368;9.966;2023-08-07T01:57:55;10.70;;;9.20;;
13743;SDS011;6943;52.368;9.966;2023-08-07T02:00:21;10.47;;;9.00;;
13743;SDS011;6943;52.368;9.966;2023-08-07T02:02:47;10.33;;;9.33;;
13743;SDS011;6943;52.368;9.966;2023-08-07T02:05:13;10.47;;;8.57;;
13743;SDS011;6943;52.368;9.966;2023-08-07T02:07:39;11.17;;;8.53;;
13743;SDS011;6943;52.368;9.966;2023-08-07T02:10:05;9.37;;;8.37;;
13743;SDS011;6943;52.368;9.966;2023-08-07T02:12:30;9.23;;;8.23;;
13743;SDS011;6943;52.368;9.966;2023-08-07T02:14:57;10.43;;;9.27;;
13743;SDS011;6943;52.368;9.966;2023-08-07T02:17:24;9.93;;;8.90;;
13743;SDS011;6943;52.368;9.966;2023-08-07T02:19:50;9.87;;;8.87;;
13743;SDS011;6943;52.368;9.966;2023-08-07T02:22:17;9.80;;;8.83;;
13743;SDS011;6943;52.368;9.966;2023-08-07T02:24:42;10.30;;;8.40;;
13743;SDS011;6943;52.368;9.966;2023-08-07T02:27:08;11.83;;;9.13;;
13743;SDS011;6943;52.368;9.966;2023-08-07T02:29:33;9.50;;;8.60;;
13743;SDS011;6943;52.368;9.966;2023-08-07T02:32:02;10.20;;;8.67;;
13743;SDS011;6943;52.368;9.966;2023-08-07T02:34:28;8.93;;;8.03;;
13743;SDS011;6943;52.368;9.966;2023-08-07T02:36:54;11.27;;;8.17;;
13743;SDS011;6943;52.368;9.966;2023-08-07T02:39:20;11.37;;;7.60;;
13743;SDS011;6943;52.368;9.966;2023-08-07T02:41:47;8.20;;;7.40;;
13743;SDS011;6943;52.368;9.966;2023-08-07T02:44:12;8.87;;;6.80;;
13743;SDS011;6943;52.368;9.966;2023-08-07T02:46:38;9.03;;;7.10;;
13743;SDS011;6943;52.368;9.966;2023-08-07T02:49:03;9.20;;;7.00;;
13743;SDS011;6943;52.368;9.966;2023-08-07T02:51:29;7.07;;;6.03;;
13743;SDS011;6943;52.368;9.966;2023-08-07T02:53:55;9.37;;;7.00;;
13743;SDS011;6943;52.368;9.966;2023-08-07T02:56:21;10.63;;;5.53;;
13743;SDS011;6943;52.368;9.966;2023-08-07T02:58:46;9.57;;;5.90;;
13743;SDS011;6943;52.368;9.966;2023-08-07T03:01:12;8.20;;;5.67;;
13743;SDS011;6943;52.368;9.966;2023-08-07T03:03:38;9.13;;;6.00;;
13743;SDS011;6943;52.368;9.966;2023-08-07T03:06:03;10.50;;;6.87;;
13743;SDS011;6943;52.368;9.966;2023-08-07T03:08:29;6.67;;;5.60;;
13743;SDS011;6943;52.368;9.966;2023-08-07T03:10:55;6.07;;;5.33;;
13743;SDS011;6943;52.368;9.966;2023-08-07T03:13:22;7.67;;;5.27;;
13743;SDS011;6943;52.368;9.966;2023-08-07T03:15:48;9.37;;;5.33;;
13743;SDS011;6943;52.368;9.966;2023-08-07T03:18:16;10.07;;;4.83;;
13743;SDS011;6943;52.368;9.966;2023-08-07T03:20:42;9.00;;;5.03;;
13743;SDS011;6943;52.368;9.966;2023-08-07T03:23:08;9.43;;;4.87;;
13743;SDS011;6943;52.368;9.966;2023-08-07T03:25:34;11.33;;;5.67;;
13743;SDS011;6943;52.368;9.966;2023-08-07T03:28:00;6.43;;;5.40;;
13743;SDS011;6943;52.368;9.966;2023-08-07T03:30:25;9.70;;;5.43;;
13743;SDS011;6943;52.368;9.966;2023-08-07T03:32:51;9.07;;;5.77;;
13743;SDS011;6943;52.368;9.966;2023-08-07T03:35:17;9.47;;;5.90;;
13743;SDS011;6943;52.368;9.966;2023-08-07T03:37:43;8.30;;;6.63;;
13743;SDS011;6943;52.368;9.966;2023-08-07T03:40:08;8.57;;;6.70;;
13743;SDS011;6943;52.368;9.966;2023-08-07T03:42:34;12.57;;;7.13;;
13743;SDS011;6943;52.368;9.966;2023-08-07T03:44:59;6.40;;;5.80;;
13743;SDS011;6943;52.368;9.966;2023-08-07T03:47:25;11.03;;;6.17;;
13743;SDS011;6943;52.368;9.966;2023-08-07T03:49:50;8.77;;;6.33;;
13743;SDS011;6943;52.368;9.966;2023-08-07T03:52:16;10.33;;;6.40;;
13743;SDS011;6943;52.368;9.966;2023-08-07T03:54:42;9.93;;;6.50;;
13743;SDS011;6943;52.368;9.966;2023-08-07T03:57:08;12.77;;;6.40;;
13743;SDS011;6943;52.368;9.966;2023-08-07T03:59:35;9.40;;;6.53;;
13743;SDS011;6943;52.368;9.966;2023-08-07T04:02:00;9.77;;;6.27;;
13743;SDS011;6943;52.368;9.966;2023-08-07T04:04:26;9.23;;;6.57;;
13743;SDS011;6943;52.368;9.966;2023-08-07T04:06:51;9.80;;;7.10;;
13743;SDS011;6943;52.368;9.966;2023-08-07T04:09:17;8.37;;;6.87;;
13743;SDS011;6943;52.368;9.966;2023-08-07T04:11:42;8.03;;;6.60;;
13743;SDS011;6943;52.368;9.966;2023-08-07T04:14:08;9.17;;;6.47;;
13743;SDS011;6943;52.368;9.966;2023-08-07T04:16:33;11.63;;;7.50;;
13743;SDS011;6943;52.368;9.966;2023-08-07T04:18:59;7.03;;;6.30;;
13743;SDS011;6943;52.368;9.966;2023-08-07T04:21:25;8.37;;;6.37;;
13743;SDS011;6943;52.368;9.966;2023-08-07T04:23:50;9.30;;;6.43;;
13743;SDS011;6943;52.368;9.966;2023-08-07T04:26:16;10.97;;;7.13;;
13743;SDS011;6943;52.368;9.966;2023-08-07T04:28:41;8.87;;;6.67;;
13743;SDS011;6943;52.368;9.966;2023-08-07T04:31:07;9.53;;;6.33;;
13743;SDS011;6943;52.368;9.966;2023-08-07T04:33:33;8.67;;;6.90;;
13743;SDS011;6943;52.368;9.966;2023-08-07T04:35:58;11.10;;;6.30;;
13743;SDS011;6943;52.368;9.966;2023-08-07T04:38:24;13.33;;;7.50;;
13743;SDS011;6943;52.368;9.966;2023-08-07T04:40:50;11.13;;;7.33;;
13743;SDS011;6943;52.368;9.966;2023-08-07T04:43:16;10.57;;;7.40;;
13743;SDS011;6943;52.368;9.966;2023-08-07T04:45:44;8.93;;;7.57;;
13743;SDS011;6943;52.368;9.966;2023-08-07T04:48:10;12.70;;;6.93;;
13743;SDS011;6943;52.368;9.966;2023-08-07T04:50:36;10.33;;;6.87;;
13743;SDS011;6943;52.368;9.966;2023-08-07T04:53:02;7.70;;;6.93;;
13743;SDS011;6943;52.368;9.966;2023-08-07T04:55:29;10.20;;;7.93;;
13743;SDS011;6943;52.368;9.966;2023-08-07T04:57:55;7.90;;;6.50;;
13743;SDS011;6943;52.368;9.966;2023-08-07T05:00:21;9.97;;;6.43;;
13743;SDS011;6943;52.368;9.966;2023-08-07T05:02:47;7.87;;;6.17;;
13743;SDS011;6943;52.368;9.966;2023-08-07T05:05:16;11.30;;;6.50;;
13743;SDS011;6943;52.368;9.966;2023-08-07T05:07:42;7.97;;;6.13;;
13743;SDS011;6943;52.368;9.966;2023-08-07T05:10:08;10.63;;;5.73;;
13743;SDS011;6943;52.368;9.966;2023-08-07T05:12:35;8.03;;;6.40;;
13743;SDS011;6943;52.368;9.966;2023-08-07T05:15:00;8.07;;;6.07;;
13743;SDS011;6943;52.368;9.966;2023-08-07T05:17:26;10.67;;;6.37;;
13743;SDS011;6943;52.368;9.966;2023-08-07T05:19:52;6.63;;;5.73;;
13743;SDS011;6943;52.368;9.966;2023-08-07T05:22:17;6.80;;;6.10;;
13743;SDS011;6943;52.368;9.966;2023-08-07T05:24:43;11.07;;;5.77;;
13743;SDS011;6943;52.368;9.966;2023-08-07T05:27:09;7.00;;;6.20;;
13743;SDS011;6943;52.368;9.966;2023-08-07T05:29:36;7.40;;;5.30;;
13743;SDS011;6943;52.368;9.966;2023-08-07T05:32:08;7.97;;;5.07;;
13743;SDS011;6943;52.368;9.966;2023-08-07T05:34:38;5.20;;;4.70;;
13743;SDS011;6943;52.368;9.966;2023-08-07T05:37:04;15.93;;;4.97;;
13743;SDS011;6943;52.368;9.966;2023-08-07T05:39:30;6.87;;;5.27;;
13743;SDS011;6943;52.368;9.966;2023-08-07T05:41:56;5.73;;;4.53;;
13743;SDS011;6943;52.368;9.966;2023-08-07T05:44:22;5.23;;;4.73;;
13743;SDS011;6943;52.368;9.966;2023-08-07T05:46:48;9.57;;;4.80;;
13743;SDS011;6943;52.368;9.966;2023-08-07T05:49:14;8.93;;;4.37;;
13743;SDS011;6943;52.368;9.966;2023-08-07T05:51:40;5.50;;;4.23;;
13743;SDS011;6943;52.368;9.966;2023-08-07T05:54:05;6.33;;;4.40;;
13743;SDS011;6943;52.368;9.966;2023-08-07T05:56:31;5.77;;;4.43;;
13743;SDS011;6943;52.368;9.966;2023-08-07T05:58:56;5.10;;;3.93;;
13743;SDS011;6943;52.368;9.966;2023-08-07T06:01:22;8.87;;;4.60;;
13743;SDS011;6943;52.368;9.966;2023-08-07T06:03:48;8.00;;;4.70;;
13743;SDS011;6943;52.368;9.966;2023-08-07T06:06:13;12.17;;;5.47;;
13743;SDS011;6943;52.368;9.966;2023-08-07T06:08:39;6.93;;;4.73;;
13743;SDS011;6943;52.368;9.966;2023-08-07T06:11:05;5.77;;;4.43;;
13743;SDS011;6943;52.368;9.966;2023-08-07T06:13:33;6.27;;;4.13;;
13743;SDS011;6943;52.368;9.966;2023-08-07T06:15:58;10.33;;;4.53;;
13743;SDS011;6943;52.368;9.966;2023-08-07T06:18:24;9.57;;;4.13;;
13743;SDS011;6943;52.368;9.966;2023-08-07T06:20:49;9.63;;;3.90;;
13743;SDS011;6943;52.368;9.966;2023-08-07T06:23:15;5.33;;;4.20;;
13743;SDS011;6943;52.368;9.966;2023-08-07T06:25:40;7.23;;;4.20;;
13743;SDS011;6943;52.368;9.966;2023-08-07T06:28:06;7.07;;;4.23;;
13743;SDS011;6943;52.368;9.966;2023-08-07T06:30:31;7.87;;;4.03;;
13743;SDS011;6943;52.368;9.966;2023-08-07T06:32:57;7.13;;;3.80;;
13743;SDS011;6943;52.368;9.966;2023-08-07T06:35:22;5.27;;;3.53;;
13743;SDS011;6943;52.368;9.966;2023-08-07T06:37:48;7.30;;;3.77;;
13743;SDS011;6943;52.368;9.966;2023-08-07T06:40:13;8.90;;;3.33;;
13743;SDS011;6943;52.368;9.966;2023-08-07T06:42:39;5.77;;;3.63;;
13743;SDS011;6943;52.368;9.966;2023-08-07T06:45:05;5.20;;;3.70;;
13743;SDS011;6943;52.368;9.966;2023-08-07T06:47:31;6.03;;;3.43;;
13743;SDS011;6943;52.368;9.966;2023-08-07T06:49:57;7.10;;;3.00;;
13743;SDS011;6943;52.368;9.966;2023-08-07T06:52:22;10.40;;;3.80;;
13743;SDS011;6943;52.368;9.966;2023-08-07T06:54:48;6.90;;;3.67;;
13743;SDS011;6943;52.368;9.966;2023-08-07T06:57:14;6.23;;;3.07;;
13743;SDS011;6943;52.368;9.966;2023-08-07T06:59:39;3.50;;;2.50;;
13743;SDS011;6943;52.368;9.966;2023-08-07T07:02:05;5.53;;;2.70;;
13743;SDS011;6943;52.368;9.966;2023-08-07T07:04:30;5.93;;;2.40;;
13743;SDS011;6943;52.368;9.966;2023-08-07T07:06:56;5.57;;;2.63;;
13743;SDS011;6943;52.368;9.966;2023-08-07T07:09:22;5.87;;;2.70;;
13743;SDS011;6943;52.368;9.966;2023-08-07T07:11:47;4.73;;;2.43;;
13743;SDS011;6943;52.368;9.966;2023-08-07T07:14:13;4.00;;;2.87;;
13743;SDS011;6943;52.368;9.966;2023-08-07T07:16:38;4.20;;;2.50;;
13743;SDS011;6943;52.368;9.966;2023-08-07T07:19:04;3.20;;;2.40;;
13743;SDS011;6943;52.368;9.966;2023-08-07T07:21:33;6.20;;;2.33;;
13743;SDS011;6943;52.368;9.966;2023-08-07T07:23:59;4.20;;;2.43;;
13743;SDS011;6943;52.368;9.966;2023-08-07T07:26:25;2.63;;;2.30;;
13743;SDS011;6943;52.368;9.966;2023-08-07T07:28:50;2.60;;;2.23;;
13743;SDS011;6943;52.368;9.966;2023-08-07T07:31:16;2.50;;;2.30;;
13743;SDS011;6943;52.368;9.966;2023-08-07T07:33:41;3.50;;;2.43;;
13743;SDS011;6943;52.368;9.966;2023-08-07T07:36:07;4.60;;;2.37;;
13743;SDS011;6943;52.368;9.966;2023-08-07T07:38:39;3.40;;;2.37;;
13743;SDS011;6943;52.368;9.966;2023-08-07T07:41:05;4.00;;;2.67;;
13743;SDS011;6943;52.368;9.966;2023-08-07T07:43:35;5.60;;;2.60;;
13743;SDS011;6943;52.368;9.966;2023-08-07T07:46:00;8.20;;;2.40;;
13743;SDS011;6943;52.368;9.966;2023-08-07T07:48:26;4.13;;;2.43;;
13743;SDS011;6943;52.368;9.966;2023-08-07T07:50:51;2.30;;;2.10;;
13743;SDS011;6943;52.368;9.966;2023-08-07T07:53:27;4.20;;;2.33;;
13743;SDS011;6943;52.368;9.966;2023-08-07T07:55:52;3.77;;;1.70;;
13743;SDS011;6943;52.368;9.966;2023-08-07T07:58:19;4.20;;;2.30;;
13743;SDS011;6943;52.368;9.966;2023-08-07T08:00:45;3.07;;;1.90;;
13743;SDS011;6943;52.368;9.966;2023-08-07T08:03:11;4.43;;;2.40;;
13743;SDS011;6943;52.368;9.966;2023-08-07T08:05:37;3.57;;;2.00;;
13743;SDS011;6943;52.368;9.966;2023-08-07T08:08:03;6.37;;;2.23;;
13743;SDS011;6943;52.368;9.966;2023-08-07T08:10:29;3.73;;;2.10;;
13743;SDS011;6943;52.368;9.966;2023-08-07T08:12:55;4.43;;;1.63;;
13743;SDS011;6943;52.368;9.966;2023-08-07T08:15:21;6.10;;;1.77;;
13743;SDS011;6943;52.368;9.966;2023-08-07T08:17:47;6.65;;;1.95;;
13743;SDS011;6943;52.368;9.966;2023-08-07T08:20:13;3.65;;;1.88;;
13743;SDS011;6943;52.368;9.966;2023-08-07T08:22:45;3.08;;;1.75;;
13743;SDS011;6943;52.368;9.966;2023-08-07T08:25:11;1.57;;;1.40;;
13743;SDS011;6943;52.368;9.966;2023-08-07T08:27:37;4.23;;;1.87;;
13743;SDS011;6943;52.368;9.966;2023-08-07T08:30:03;5.50;;;1.80;;
13743;SDS011;6943;52.368;9.966;2023-08-07T08:32:29;2.83;;;2.00;;
13743;SDS011;6943;52.368;9.966;2023-08-07T08:34:55;2.93;;;1.50;;
13743;SDS011;6943;52.368;9.966;2023-08-07T08:37:20;2.33;;;1.60;;
13743;SDS011;6943;52.368;9.966;2023-08-07T08:39:46;6.00;;;1.97;;
13743;SDS011;6943;52.368;9.966;2023-08-07T08:42:12;2.13;;;1.50;;
13743;SDS011;6943;52.368;9.966;2023-08-07T08:44:39;2.87;;;1.60;;
13743;SDS011;6943;52.368;9.966;2023-08-07T08:47:05;7.10;;;1.97;;
13743;SDS011;6943;52.368;9.966;2023-08-07T08:49:35;3.53;;;2.00;;
13743;SDS011;6943;52.368;9.966;2023-08-07T08:52:12;2.57;;;1.80;;
13743;SDS011;6943;52.368;9.966;2023-08-07T08:54:38;3.43;;;1.70;;
13743;SDS011;6943;52.368;9.966;2023-08-07T08:57:05;4.83;;;2.37;;
13743;SDS011;6943;52.368;9.966;2023-08-07T08:59:31;3.97;;;1.87;;
13743;SDS011;6943;52.368;9.966;2023-08-07T09:01:58;5.17;;;1.90;;
13743;SDS011;6943;52.368;9.966;2023-08-07T09:04:24;3.15;;;1.42;;
13743;SDS011;6943;52.368;9.966;2023-08-07T09:06:50;3.00;;;1.80;;
13743;SDS011;6943;52.368;9.966;2023-08-07T09:09:16;5.03;;;2.10;;
13743;SDS011;6943;52.368;9.966;2023-08-07T09:11:43;4.60;;;2.27;;
13743;SDS011;6943;52.368;9.966;2023-08-07T09:14:11;5.77;;;2.10;;
13743;SDS011;6943;52.368;9.966;2023-08-07T09:16:43;5.27;;;2.30;;
13743;SDS011;6943;52.368;9.966;2023-08-07T09:19:10;6.83;;;2.00;;
13743;SDS011;6943;52.368;9.966;2023-08-07T09:21:36;6.23;;;2.23;;
13743;SDS011;6943;52.368;9.966;2023-08-07T09:24:02;6.97;;;3.20;;
13743;SDS011;6943;52.368;9.966;2023-08-07T09:26:28;5.07;;;2.40;;
13743;SDS011;6943;52.368;9.966;2023-08-07T09:28:53;5.63;;;2.80;;
13743;SDS011;6943;52.368;9.966;2023-08-07T09:31:20;6.83;;;2.63;;
13743;SDS011;6943;52.368;9.966;2023-08-07T09:33:47;5.70;;;2.53;;
13743;SDS011;6943;52.368;9.966;2023-08-07T09:36:15;4.60;;;2.47;;
13743;SDS011;6943;52.368;9.966;2023-08-07T09:38:42;6.97;;;3.10;;
13743;SDS011;6943;52.368;9.966;2023-08-07T09:41:07;3.97;;;2.70;;
13743;SDS011;6943;52.368;9.966;2023-08-07T09:43:33;3.67;;;2.40;;
13743;SDS011;6943;52.368;9.966;2023-08-07T09:46:03;5.90;;;2.87;;
13743;SDS011;6943;52.368;9.966;2023-08-07T09:48:30;11.60;;;2.50;;
13743;SDS011;6943;52.368;9.966;2023-08-07T09:51:00;8.43;;;2.67;;
13743;SDS011;6943;52.368;9.966;2023-08-07T09:53:30;8.40;;;2.70;;
13743;SDS011;6943;52.368;9.966;2023-08-07T09:55:56;3.90;;;2.57;;
13743;SDS011;6943;52.368;9.966;2023-08-07T09:58:22;6.03;;;2.20;;
13743;SDS011;6943;52.368;9.966;2023-08-07T10:00:48;5.83;;;2.40;;
13743;SDS011;6943;52.368;9.966;2023-08-07T10:03:15;12.13;;;2.50;;
13743;SDS011;6943;52.368;9.966;2023-08-07T10:05:42;11.07;;;2.63;;
13743;SDS011;6943;52.368;9.966;2023-08-07T10:08:08;8.70;;;2.70;;
13743;SDS011;6943;52.368;9.966;2023-08-07T10:10:36;7.87;;;2.53;;
13743;SDS011;6943;52.368;9.966;2023-08-07T10:13:03;9.77;;;3.17;;
13743;SDS011;6943;52.368;9.966;2023-08-07T10:15:29;5.57;;;2.67;;
13743;SDS011;6943;52.368;9.966;2023-08-07T10:17:56;5.17;;;2.30;;
13743;SDS011;6943;52.368;9.966;2023-08-07T10:20:22;5.93;;;2.20;;
13743;SDS011;6943;52.368;9.966;2023-08-07T10:22:49;8.33;;;2.80;;
13743;SDS011;6943;52.368;9.966;2023-08-07T10:25:16;7.90;;;1.87;;
13743;SDS011;6943;52.368;9.966;2023-08-07T10:27:46;5.70;;;2.20;;
13743;SDS011;6943;52.368;9.966;2023-08-07T10:30:16;5.70;;;2.07;;
13743;SDS011;6943;52.368;9.966;2023-08-07T10:32:44;4.37;;;1.80;;
13743;SDS011;6943;52.368;9.966;2023-08-07T10:35:23;7.17;;;2.17;;
13743;SDS011;6943;52.368;9.966;2023-08-07T10:37:50;4.10;;;2.43;;
13743;SDS011;6943;52.368;9.966;2023-08-07T10:40:16;8.40;;;2.67;;
13743;SDS011;6943;52.368;9.966;2023-08-07T10:45:23;3.80;;;2.10;;
13743;SDS011;6943;52.368;9.966;2023-08-07T10:51:09;3.40;;;1.90;;
13743;SDS011;6943;52.368;9.966;2023-08-07T10:53:18;5.20;;;1.73;;
13743;SDS011;6943;52.368;9.966;2023-08-07T10:55:46;2.80;;;1.60;;
13743;SDS011;6943;52.368;9.966;2023-08-07T10:58:25;5.63;;;1.83;;
13743;SDS011;6943;52.368;9.966;2023-08-07T11:03:54;4.20;;;1.80;;
13743;SDS011;6943;52.368;9.966;2023-08-07T11:06:24;3.60;;;1.77;;
13743;SDS011;6943;52.368;9.966;2023-08-07T11:08:51;3.70;;;1.60;;
13743;SDS011;6943;52.368;9.966;2023-08-07T11:11:17;7.57;;;2.03;;
13743;SDS011;6943;52.368;9.966;2023-08-07T11:13:43;6.93;;;1.97;;
13743;SDS011;6943;52.368;9.966;2023-08-07T11:16:08;2.53;;;1.83;;
13743;SDS011;6943;52.368;9.966;2023-08-07T11:18:34;5.97;;;2.03;;
13743;SDS011;6943;52.368;9.966;2023-08-07T11:21:07;4.83;;;1.73;;
13743;SDS011;6943;52.368;9.966;2023-08-07T11:23:35;5.10;;;1.80;;
13743;SDS011;6943;52.368;9.966;2023-08-07T11:26:01;4.53;;;1.80;;
13743;SDS011;6943;52.368;9.966;2023-08-07T11:28:28;3.33;;;1.70;;
13743;SDS011;6943;52.368;9.966;2023-08-07T11:30:54;5.90;;;2.23;;
13743;SDS011;6943;52.368;9.966;2023-08-07T11:33:21;3.73;;;1.60;;
13743;SDS011;6943;52.368;9.966;2023-08-07T11:35:48;4.30;;;1.70;;
13743;SDS011;6943;52.368;9.966;2023-08-07T11:38:33;7.30;;;1.87;;
13743;SDS011;6943;52.368;9.966;2023-08-07T11:41:02;8.40;;;2.00;;
13743;SDS011;6943;52.368;9.966;2023-08-07T11:43:30;4.37;;;1.70;;
13743;SDS011;6943;52.368;9.966;2023-08-07T11:45:57;6.43;;;2.10;;
13743;SDS011;6943;52.368;9.966;2023-08-07T11:48:27;7.47;;;2.43;;
13743;SDS011;6943;52.368;9.966;2023-08-07T11:50:54;4.83;;;1.97;;
13743;SDS011;6943;52.368;9.966;2023-08-07T11:53:20;3.70;;;1.57;;
13743;SDS011;6943;52.368;9.966;2023-08-07T11:55:56;3.30;;;1.37;;
13743;SDS011;6943;52.368;9.966;2023-08-07T11:58:47;1.57;;;1.00;;
13743;SDS011;6943;52.368;9.966;2023-08-07T12:01:16;3.73;;;1.33;;
13743;SDS011;6943;52.368;9.966;2023-08-07T12:03:56;5.60;;;2.07;;
13743;SDS011;6943;52.368;9.966;2023-08-07T12:06:33;5.57;;;1.73;;
13743;SDS011;6943;52.368;9.966;2023-08-07T12:09:00;3.27;;;1.40;;
13743;SDS011;6943;52.368;9.966;2023-08-07T12:11:28;2.47;;;1.23;;
13743;SDS011;6943;52.368;9.966;2023-08-07T12:13:55;4.37;;;1.73;;
13743;SDS011;6943;52.368;9.966;2023-08-07T12:16:20;5.47;;;2.00;;
13743;SDS011;6943;52.368;9.966;2023-08-07T12:18:50;5.37;;;2.10;;
13743;SDS011;6943;52.368;9.966;2023-08-07T12:21:17;6.67;;;1.60;;
13743;SDS011;6943;52.368;9.966;2023-08-07T12:23:49;4.17;;;1.67;;
13743;SDS011;6943;52.368;9.966;2023-08-07T12:26:15;4.83;;;1.73;;
13743;SDS011;6943;52.368;9.966;2023-08-07T12:28:41;3.30;;;1.03;;
13743;SDS011;6943;52.368;9.966;2023-08-07T12:31:07;8.93;;;1.67;;
13743;SDS011;6943;52.368;9.966;2023-08-07T12:33:32;3.93;;;1.27;;
13743;SDS011;6943;52.368;9.966;2023-08-07T12:35:58;4.87;;;1.70;;
13743;SDS011;6943;52.368;9.966;2023-08-07T12:38:25;4.37;;;1.60;;
13743;SDS011;6943;52.368;9.966;2023-08-07T12:40:51;4.10;;;1.40;;
13743;SDS011;6943;52.368;9.966;2023-08-07T12:43:16;2.13;;;1.13;;
13743;SDS011;6943;52.368;9.966;2023-08-07T12:45:42;7.10;;;2.00;;
13743;SDS011;6943;52.368;9.966;2023-08-07T12:48:08;4.03;;;1.80;;
13743;SDS011;6943;52.368;9.966;2023-08-07T12:50:34;7.17;;;1.90;;
13743;SDS011;6943;52.368;9.966;2023-08-07T12:52:59;8.63;;;2.30;;
13743;SDS011;6943;52.368;9.966;2023-08-07T12:55:25;4.10;;;1.70;;
13743;SDS011;6943;52.368;9.966;2023-08-07T12:57:52;5.63;;;2.00;;
13743;SDS011;6943;52.368;9.966;2023-08-07T13:00:18;3.57;;;2.03;;
13743;SDS011;6943;52.368;9.966;2023-08-07T13:02:45;7.33;;;2.03;;
13743;SDS011;6943;52.368;9.966;2023-08-07T13:05:12;4.67;;;1.70;;
13743;SDS011;6943;52.368;9.966;2023-08-07T13:07:39;4.47;;;1.90;;
13743;SDS011;6943;52.368;9.966;2023-08-07T13:10:06;9.10;;;2.90;;
13743;SDS011;6943;52.368;9.966;2023-08-07T13:12:36;6.77;;;2.07;;
13743;SDS011;6943;52.368;9.966;2023-08-07T13:15:03;7.70;;;2.23;;
13743;SDS011;6943;52.368;9.966;2023-08-07T13:17:32;7.27;;;2.47;;
13743;SDS011;6943;52.368;9.966;2023-08-07T13:19:58;7.60;;;2.40;;
13743;SDS011;6943;52.368;9.966;2023-08-07T13:22:24;7.77;;;2.10;;
13743;SDS011;6943;52.368;9.966;2023-08-07T13:24:50;5.23;;;2.20;;
13743;SDS011;6943;52.368;9.966;2023-08-07T13:27:15;7.07;;;1.93;;
13743;SDS011;6943;52.368;9.966;2023-08-07T13:29:41;7.17;;;2.37;;
13743;SDS011;6943;52.368;9.966;2023-08-07T13:32:06;4.93;;;1.90;;
13743;SDS011;6943;52.368;9.966;2023-08-07T13:34:36;7.40;;;2.43;;
13743;SDS011;6943;52.368;9.966;2023-08-07T13:37:02;4.57;;;2.13;;
13743;SDS011;6943;52.368;9.966;2023-08-07T13:39:31;5.67;;;2.40;;
13743;SDS011;6943;52.368;9.966;2023-08-07T13:41:57;8.83;;;2.90;;
13743;SDS011;6943;52.368;9.966;2023-08-07T13:44:23;10.40;;;2.30;;
13743;SDS011;6943;52.368;9.966;2023-08-07T13:46:48;6.30;;;2.07;;
13743;SDS011;6943;52.368;9.966;2023-08-07T13:49:14;7.93;;;2.60;;
13743;SDS011;6943;52.368;9.966;2023-08-07T13:51:40;4.37;;;2.03;;
13743;SDS011;6943;52.368;9.966;2023-08-07T13:54:06;5.43;;;1.90;;
13743;SDS011;6943;52.368;9.966;2023-08-07T13:56:32;6.90;;;2.17;;
13743;SDS011;6943;52.368;9.966;2023-08-07T13:58:58;6.13;;;2.77;;
13743;SDS011;6943;52.368;9.966;2023-08-07T14:01:25;8.73;;;2.13;;
13743;SDS011;6943;52.368;9.966;2023-08-07T14:03:50;4.43;;;2.03;;
13743;SDS011;6943;52.368;9.966;2023-08-07T14:06:16;4.80;;;2.03;;
13743;SDS011;6943;52.368;9.966;2023-08-07T14:08:41;5.57;;;1.80;;
13743;SDS011;6943;52.368;9.966;2023-08-07T14:11:07;4.30;;;1.97;;
13743;SDS011;6943;52.368;9.966;2023-08-07T14:13:32;6.50;;;2.30;;
13743;SDS011;6943;52.368;9.966;2023-08-07T14:15:58;4.73;;;2.20;;
13743;SDS011;6943;52.368;9.966;2023-08-07T14:18:23;8.20;;;2.37;;
13743;SDS011;6943;52.368;9.966;2023-08-07T14:20:49;8.80;;;2.17;;
13743;SDS011;6943;52.368;9.966;2023-08-07T14:23:14;6.60;;;1.90;;
13743;SDS011;6943;52.368;9.966;2023-08-07T14:25:40;7.57;;;2.10;;
13743;SDS011;6943;52.368;9.966;2023-08-07T14:28:05;7.20;;;1.97;;
13743;SDS011;6943;52.368;9.966;2023-08-07T14:30:32;3.80;;;2.10;;
13743;SDS011;6943;52.368;9.966;2023-08-07T14:32:58;7.50;;;2.30;;
13743;SDS011;6943;52.368;9.966;2023-08-07T14:35:23;7.03;;;2.60;;
13743;SDS011;6943;52.368;9.966;2023-08-07T14:37:49;3.53;;;2.00;;
13743;SDS011;6943;52.368;9.966;2023-08-07T14:40:15;4.93;;;2.07;;
13743;SDS011;6943;52.368;9.966;2023-08-07T14:42:40;8.23;;;2.60;;
13743;SDS011;6943;52.368;9.966;2023-08-07T14:45:06;5.00;;;2.03;;
13743;SDS011;6943;52.368;9.966;2023-08-07T14:47:32;5.13;;;1.97;;
13743;SDS011;6943;52.368;9.966;2023-08-07T14:49:57;3.53;;;1.90;;
13743;SDS011;6943;52.368;9.966;2023-08-07T14:52:23;5.07;;;2.07;;
13743;SDS011;6943;52.368;9.966;2023-08-07T14:54:48;11.83;;;2.03;;
13743;SDS011;6943;52.368;9.966;2023-08-07T14:57:14;4.97;;;2.20;;
13743;SDS011;6943;52.368;9.966;2023-08-07T14:59:39;6.83;;;2.37;;
13743;SDS011;6943;52.368;9.966;2023-08-07T15:02:05;5.30;;;2.27;;
13743;SDS011;6943;52.368;9.966;2023-08-07T15:04:31;4.10;;;2.00;;
13743;SDS011;6943;52.368;9.966;2023-08-07T15:06:56;7.43;;;2.10;;
13743;SDS011;6943;52.368;9.966;2023-08-07T15:09:22;8.47;;;2.50;;